createdAt,value
2023-01-28T00:01:29.916Z,2.3
2023-01-28T00:03:28.782Z,2.3
2023-01-28T00:07:28.111Z,2.3
2023-01-28T00:09:27.574Z,2.3
2023-01-28T00:11:26.989Z,2.3
2023-01-28T00:13:27.249Z,2.2
2023-01-28T00:15:25.981Z,2.2
2023-01-28T00:17:25.823Z,2.3
2023-01-28T00:19:25.505Z,2.3
2023-01-28T00:21:25.225Z,2.3
2023-01-28T00:25:23.977Z,2.2
2023-01-28T00:27:23.304Z,2.3
2023-01-28T00:29:22.861Z,2.3
2023-01-28T00:31:25.651Z,2.3
2023-01-28T00:33:22.615Z,2.2
2023-01-28T00:35:21.544Z,2.2
2023-01-28T00:37:21.621Z,2.2
2023-01-28T00:39:20.724Z,2.2
2023-01-28T00:41:21.988Z,2.2
2023-01-28T00:43:20.561Z,2.2
2023-01-28T00:45:19.607Z,2.2
2023-01-28T00:49:18.583Z,2.2
2023-01-28T00:51:19.716Z,2.2
2023-01-28T00:55:17.207Z,2.2
2023-01-28T00:57:16.833Z,2.2
2023-01-28T00:59:16.294Z,2.2
2023-01-28T01:01:18.822Z,2.2
2023-01-28T01:03:15.283Z,2.2
2023-01-28T01:05:14.732Z,2.2
2023-01-28T01:07:13.889Z,2.3
2023-01-28T01:09:13.558Z,2.2
2023-01-28T01:13:12.698Z,2.2
2023-01-28T01:15:13.012Z,2.2
2023-01-28T01:17:12.105Z,2.2
2023-01-28T01:19:11.207Z,2.2
2023-01-28T01:21:12.742Z,2.2
2023-01-28T01:23:11.911Z,2.1
2023-01-28T01:25:12.766Z,2.2
2023-01-28T01:27:09.243Z,2.1
2023-01-28T01:29:08.931Z,2.2
2023-01-28T01:31:12.085Z,2.2
2023-01-28T01:33:08.089Z,2.2
2023-01-28T01:35:09.713Z,2.2
2023-01-28T01:37:09.464Z,2.2
2023-01-28T01:39:06.425Z,2.1
2023-01-28T01:41:07.514Z,2.2
2023-01-28T01:43:15.194Z,2.1
2023-01-28T01:47:04.784Z,2.2
2023-01-28T01:49:13.705Z,2.1
2023-01-28T01:51:09.267Z,2.1
2023-01-28T01:53:08.842Z,2.0
2023-01-28T01:55:10.465Z,2.1
2023-01-28T01:57:04.211Z,2.1
2023-01-28T01:59:03.997Z,2.1
2023-01-28T02:01:02.272Z,2.1
2023-01-28T02:03:01.505Z,2.1
2023-01-28T02:05:00.399Z,2.1
2023-01-28T02:07:00.986Z,2.1
2023-01-28T02:08:59.633Z,2.0
2023-01-28T02:11:03.338Z,2.2
2023-01-28T02:12:59.105Z,2.1
2023-01-28T02:15:01.990Z,2.1
2023-01-28T02:16:59.444Z,2.1
2023-01-28T02:18:57.327Z,2.0
2023-01-28T02:21:16.417Z,2.0
2023-01-28T02:23:15.110Z,2.1
2023-01-28T02:25:15.997Z,2.0
2023-01-28T02:27:13.264Z,2.1
2023-01-28T02:29:01.520Z,2.1
2023-01-28T02:31:00.423Z,2.0
2023-01-28T02:32:59.494Z,2.0
2023-01-28T02:35:00.575Z,2.0
2023-01-28T02:38:57.780Z,2.0
2023-01-28T02:41:01.410Z,1.9
2023-01-28T02:42:51.588Z,2.0
2023-01-28T02:44:51.173Z,2.0
2023-01-28T02:48:50.524Z,2.0
2023-01-28T02:53:08.076Z,1.9
2023-01-28T02:54:57.180Z,1.9
2023-01-28T02:57:00.278Z,1.9
2023-01-28T02:58:57.823Z,1.9
2023-01-28T03:00:54.295Z,1.9
2023-01-28T03:02:55.656Z,1.9
2023-01-28T03:04:50.025Z,1.8
2023-01-28T03:06:52.305Z,1.8
2023-01-28T03:09:02.439Z,1.8
2023-01-28T03:10:55.868Z,1.8
2023-01-28T03:13:00.809Z,1.9
2023-01-28T03:14:58.949Z,1.8
2023-01-28T03:16:54.255Z,1.8
2023-01-28T03:18:56.770Z,1.8
2023-01-28T03:20:57.967Z,1.8
2023-01-28T03:22:55.516Z,1.8
2023-01-28T03:24:56.595Z,1.8
2023-01-28T03:27:01.003Z,1.8
2023-01-28T03:28:54.024Z,1.8
2023-01-28T03:30:55.618Z,1.8
2023-01-28T03:32:51.314Z,1.8
2023-01-28T03:34:49.932Z,1.8
2023-01-28T03:36:47.828Z,1.8
2023-01-28T03:38:41.311Z,1.8
2023-01-28T03:40:47.621Z,1.7
2023-01-28T03:42:37.906Z,1.7
2023-01-28T03:44:47.091Z,1.8
2023-01-28T03:46:38.536Z,1.8
2023-01-28T03:48:36.777Z,1.7
2023-01-28T03:50:36.694Z,1.7
2023-01-28T03:52:35.554Z,1.8
2023-01-28T03:54:34.929Z,1.7
2023-01-28T03:56:36.685Z,1.6
2023-01-28T03:58:43.792Z,1.7
2023-01-28T04:00:37.021Z,1.6
2023-01-28T04:02:34.515Z,1.6
2023-01-28T04:04:32.820Z,1.6
2023-01-28T04:08:32.182Z,1.6
2023-01-28T04:10:31.059Z,1.6
2023-01-28T04:12:30.735Z,1.6
2023-01-28T04:14:30.360Z,1.6
2023-01-28T04:16:29.732Z,1.6
2023-01-28T04:18:29.128Z,1.5
2023-01-28T04:20:29.010Z,1.5
2023-01-28T04:22:28.485Z,1.5
2023-01-28T04:24:28.266Z,1.5
2023-01-28T04:26:28.031Z,1.5
2023-01-28T04:28:26.964Z,1.5
2023-01-28T04:30:27.437Z,1.5
2023-01-28T04:32:25.850Z,1.4
2023-01-28T04:34:25.376Z,1.4
2023-01-28T04:36:25.254Z,1.4
2023-01-28T04:38:24.540Z,1.4
2023-01-28T04:40:23.945Z,1.4
2023-01-28T04:42:23.560Z,1.4
2023-01-28T04:44:23.230Z,1.4
2023-01-28T04:46:23.343Z,1.4
2023-01-28T04:48:22.867Z,1.5
2023-01-28T04:50:21.728Z,1.5
2023-01-28T04:52:21.141Z,1.4
2023-01-28T04:54:20.659Z,1.3
2023-01-28T04:56:20.221Z,1.4
2023-01-28T05:00:19.962Z,1.5
2023-01-28T05:02:18.914Z,1.4
2023-01-28T05:04:19.001Z,1.4
2023-01-28T05:06:18.205Z,1.3
2023-01-28T05:08:17.559Z,1.3
2023-01-28T05:10:18.529Z,1.4
2023-01-28T05:14:16.248Z,1.3
2023-01-28T05:16:15.397Z,1.3
2023-01-28T05:18:14.976Z,1.3
2023-01-28T05:20:14.781Z,1.3
2023-01-28T05:22:14.448Z,1.3
2023-01-28T05:24:15.100Z,1.3
2023-01-28T05:28:13.179Z,1.2
2023-01-28T05:30:12.787Z,1.3
2023-01-28T05:32:11.928Z,1.2
2023-01-28T05:34:11.142Z,1.2
2023-01-28T05:38:10.345Z,1.2
2023-01-28T05:40:11.617Z,1.2
2023-01-28T05:42:10.828Z,1.2
2023-01-28T05:44:09.381Z,1.2
2023-01-28T05:46:08.259Z,1.2
2023-01-28T05:48:07.800Z,1.2
2023-01-28T05:50:13.741Z,1.2
2023-01-28T05:54:07.307Z,1.2
2023-01-28T05:56:06.331Z,1.2
2023-01-28T05:58:05.427Z,1.2
2023-01-28T06:00:06.268Z,1.1
2023-01-28T06:02:04.987Z,1.2
2023-01-28T06:06:03.871Z,1.2
2023-01-28T06:08:03.180Z,1.1
2023-01-28T06:10:02.664Z,1.1
2023-01-28T06:12:01.925Z,1.1
2023-01-28T06:14:01.529Z,1.1
2023-01-28T06:16:02.478Z,1.1
2023-01-28T06:18:00.801Z,1.1
2023-01-28T06:20:00.540Z,1.1
2023-01-28T06:21:59.672Z,1.1
2023-01-28T06:23:59.076Z,1.1
2023-01-28T06:25:58.913Z,1.1
2023-01-28T06:27:57.924Z,1.1
2023-01-28T06:29:57.678Z,1.1
2023-01-28T06:31:57.019Z,1.1
2023-01-28T06:33:56.479Z,1.1
2023-01-28T06:37:56.468Z,1.1
2023-01-28T06:39:56.013Z,1.1
2023-01-28T06:41:54.778Z,1.0
2023-01-28T06:43:54.279Z,1.0
2023-01-28T06:45:54.181Z,1.1
2023-01-28T06:47:53.424Z,1.1
2023-01-28T06:51:52.445Z,1.1
2023-01-28T06:53:51.981Z,1.0
2023-01-28T06:55:51.612Z,1.0
2023-01-28T06:57:51.354Z,1.0
2023-01-28T06:59:51.078Z,1.0
2023-01-28T07:01:50.157Z,1.1
2023-01-28T07:03:49.665Z,1.1
2023-01-28T07:05:49.273Z,1.1
2023-01-28T07:07:48.529Z,1.1
2023-01-28T07:09:47.977Z,1.0
2023-01-28T07:11:47.477Z,1.0
2023-01-28T07:15:47.983Z,1.1
2023-01-28T07:17:46.488Z,1.0
2023-01-28T07:19:45.593Z,1.0
2023-01-28T07:21:45.134Z,1.0
2023-01-28T07:23:44.660Z,1.0
2023-01-28T07:25:44.394Z,1.1
2023-01-28T07:27:47.520Z,1.0
2023-01-28T07:29:43.409Z,0.9
2023-01-28T07:31:43.065Z,0.9
2023-01-28T07:33:42.634Z,1.0
2023-01-28T07:35:42.665Z,1.0
2023-01-28T07:37:41.263Z,1.0
2023-01-28T07:39:40.984Z,1.0
2023-01-28T07:41:40.602Z,0.9
2023-01-28T07:45:39.800Z,0.9
2023-01-28T07:47:39.447Z,0.9
2023-01-28T07:49:38.817Z,0.9
2023-01-28T07:51:38.488Z,0.9
2023-01-28T07:53:38.226Z,0.9
2023-01-28T07:55:38.362Z,0.9
2023-01-28T07:57:36.659Z,0.9
2023-01-28T07:59:36.061Z,0.9
2023-01-28T08:01:35.594Z,1.0
2023-01-28T08:03:35.192Z,1.0
2023-01-28T08:05:40.402Z,0.9
2023-01-28T08:07:34.076Z,0.9
2023-01-28T08:09:33.893Z,0.9
2023-01-28T08:11:35.306Z,0.9
2023-01-28T08:13:32.717Z,0.9
2023-01-28T08:15:35.161Z,0.9
2023-01-28T08:17:31.960Z,0.9
2023-01-28T08:19:31.047Z,0.9
2023-01-28T08:21:30.605Z,0.9
2023-01-28T08:23:33.549Z,0.9
2023-01-28T08:25:29.505Z,0.8
2023-01-28T08:27:29.312Z,0.9
2023-01-28T08:29:29.033Z,0.9
2023-01-28T08:33:27.599Z,0.9
2023-01-28T08:35:27.913Z,0.9
2023-01-28T08:37:26.538Z,0.9
2023-01-28T08:39:26.353Z,0.9
2023-01-28T08:41:25.693Z,0.9
2023-01-28T08:43:25.221Z,0.9
2023-01-28T08:45:27.988Z,0.9
2023-01-28T08:47:24.130Z,0.9
2023-01-28T08:49:24.225Z,0.9
2023-01-28T08:51:23.199Z,0.9
2023-01-28T08:55:22.503Z,0.8
2023-01-28T08:59:20.930Z,0.8
2023-01-28T09:01:21.478Z,0.8
2023-01-28T09:03:20.006Z,0.8
2023-01-28T09:05:21.034Z,0.8
2023-01-28T09:07:20.187Z,0.8
2023-01-28T09:09:18.715Z,0.9
2023-01-28T09:11:17.930Z,0.8
2023-01-28T09:13:17.687Z,0.8
2023-01-28T09:15:17.030Z,0.8
2023-01-28T09:17:16.336Z,0.9
2023-01-28T09:19:16.089Z,0.9
2023-01-28T09:21:15.343Z,0.9
2023-01-28T09:23:15.138Z,0.8
2023-01-28T09:25:15.176Z,0.9
2023-01-28T09:27:13.996Z,0.9
2023-01-28T09:29:13.313Z,0.9
2023-01-28T09:31:13.167Z,0.9
2023-01-28T09:33:12.176Z,1.0
2023-01-28T09:35:11.797Z,0.9
2023-01-28T09:37:11.294Z,1.0
2023-01-28T09:41:23.246Z,1.0
2023-01-28T09:43:29.632Z,1.0
2023-01-28T09:45:16.940Z,0.9
2023-01-28T09:47:21.450Z,1.0
2023-01-28T09:49:18.408Z,0.9
2023-01-28T09:51:10.600Z,1.0
2023-01-28T09:55:16.344Z,0.9
2023-01-28T09:57:13.252Z,0.9
2023-01-28T09:59:17.635Z,0.9
2023-01-28T10:01:23.964Z,1.0
2023-01-28T10:03:22.027Z,0.9
2023-01-28T10:05:16.772Z,1.1
2023-01-28T10:09:16.475Z,1.0
2023-01-28T10:11:15.144Z,1.0
2023-01-28T10:15:18.616Z,1.1
2023-01-28T10:17:09.297Z,1.0
2023-01-28T10:19:03.328Z,1.0
2023-01-28T10:21:07.503Z,1.0
2023-01-28T10:23:06.011Z,1.0
2023-01-28T10:25:05.888Z,1.0
2023-01-28T10:26:58.957Z,1.0
2023-01-28T10:29:03.178Z,1.0
2023-01-28T10:30:57.676Z,1.0
2023-01-28T10:33:03.141Z,1.0
2023-01-28T10:34:58.776Z,1.0
2023-01-28T10:36:57.738Z,1.0
2023-01-28T10:38:55.412Z,1.1
2023-01-28T10:40:58.878Z,1.1
2023-01-28T10:42:54.298Z,1.1
2023-01-28T10:44:58.222Z,1.1
2023-01-28T10:46:58.968Z,1.1
2023-01-28T10:48:59.073Z,1.2
2023-01-28T10:54:58.710Z,1.1
2023-01-28T10:56:57.625Z,1.1
2023-01-28T10:58:58.889Z,1.1
2023-01-28T11:00:53.807Z,1.1
2023-01-28T11:02:49.525Z,1.0
2023-01-28T11:05:03.961Z,1.1
2023-01-28T11:06:53.400Z,1.1
2023-01-28T11:08:48.261Z,1.2
2023-01-28T11:10:48.863Z,1.1
2023-01-28T11:12:54.830Z,1.1
2023-01-28T11:14:50.822Z,1.2
2023-01-28T11:16:46.439Z,1.2
2023-01-28T11:18:49.960Z,1.2
2023-01-28T11:20:51.057Z,1.2
2023-01-28T11:24:44.206Z,1.2
2023-01-28T11:26:48.531Z,1.2
2023-01-28T11:28:43.313Z,1.2
2023-01-28T11:30:42.228Z,1.3
2023-01-28T11:32:41.975Z,1.0
2023-01-28T11:34:49.231Z,1.0
2023-01-28T11:36:49.486Z,1.0
2023-01-28T11:38:49.540Z,1.0
2023-01-28T11:40:49.613Z,0.9
2023-01-28T11:42:40.099Z,0.9
2023-01-28T11:44:39.490Z,0.9
2023-01-28T11:46:51.115Z,1.0
2023-01-28T11:48:46.418Z,1.2
2023-01-28T11:50:47.517Z,1.1
2023-01-28T11:54:52.354Z,0.9
2023-01-28T11:56:53.137Z,1.0
2023-01-28T11:58:46.484Z,1.0
2023-01-28T12:00:42.868Z,1.0
2023-01-28T12:02:48.472Z,1.1
2023-01-28T12:04:51.009Z,1.2
2023-01-28T12:06:45.494Z,1.2
2023-01-28T12:08:40.725Z,1.1
2023-01-28T12:10:41.304Z,1.0
2023-01-28T12:12:47.799Z,1.1
2023-01-28T12:14:38.865Z,1.1
2023-01-28T12:16:48.778Z,1.3
2023-01-28T12:18:46.471Z,1.2
2023-01-28T12:20:37.985Z,1.2
2023-01-28T12:22:43.992Z,1.4
2023-01-28T12:24:44.348Z,1.4
2023-01-28T12:26:38.261Z,1.4
2023-01-28T12:28:40.283Z,1.4
2023-01-28T12:30:41.180Z,1.4
2023-01-28T12:32:43.018Z,1.4
2023-01-28T12:34:43.619Z,1.3
2023-01-28T12:36:41.084Z,1.4
2023-01-28T12:38:36.256Z,1.3
2023-01-28T12:40:44.129Z,1.1
2023-01-28T12:44:31.057Z,1.5
2023-01-28T12:46:34.731Z,1.5
2023-01-28T12:48:29.720Z,1.4
2023-01-28T12:50:26.630Z,1.4
2023-01-28T12:54:28.165Z,1.4
2023-01-28T12:56:24.863Z,1.6
2023-01-28T13:04:30.285Z,1.6
2023-01-28T13:06:25.461Z,1.5
2023-01-28T13:08:23.013Z,1.5
2023-01-28T13:10:23.534Z,1.5
2023-01-28T13:12:17.817Z,1.7
2023-01-28T13:14:17.223Z,1.8
2023-01-28T13:16:16.542Z,1.8
2023-01-28T13:18:30.304Z,1.8
2023-01-28T13:20:15.781Z,1.7
2023-01-28T13:22:27.035Z,1.6
2023-01-28T13:24:30.991Z,1.3
2023-01-28T13:26:26.942Z,1.4
2023-01-28T13:28:26.125Z,1.3
2023-01-28T13:30:23.547Z,1.2
2023-01-28T13:32:26.966Z,1.3
2023-01-28T13:34:32.071Z,1.3
2023-01-28T13:36:23.908Z,1.4
2023-01-28T13:38:17.273Z,1.5
2023-01-28T13:40:23.173Z,1.5
2023-01-28T13:42:21.900Z,1.4
2023-01-28T13:44:19.983Z,1.4
2023-01-28T13:46:10.365Z,1.6
2023-01-28T13:48:27.073Z,1.7
2023-01-28T13:50:14.773Z,1.7
2023-01-28T13:52:14.160Z,1.8
2023-01-28T13:54:11.785Z,1.6
2023-01-28T13:56:14.472Z,1.8
2023-01-28T14:00:12.079Z,1.5
2023-01-28T14:02:22.072Z,1.5
2023-01-28T14:04:22.983Z,1.5
2023-01-28T14:06:19.511Z,1.7
2023-01-28T14:10:12.018Z,1.7
2023-01-28T14:12:21.079Z,1.8
2023-01-28T14:16:16.428Z,1.5
2023-01-28T14:18:00.820Z,1.5
2023-01-28T14:20:00.712Z,1.4
2023-01-28T14:21:58.819Z,1.5
2023-01-28T14:23:59.915Z,1.3
2023-01-28T14:26:10.495Z,1.4
2023-01-28T14:28:00.516Z,1.5
2023-01-28T14:30:07.497Z,1.5
2023-01-28T14:31:56.394Z,1.6
2023-01-28T14:34:04.142Z,1.5
2023-01-28T14:35:56.110Z,1.5
2023-01-28T14:39:57.720Z,1.4
2023-01-28T14:41:57.839Z,1.5
2023-01-28T14:43:55.338Z,1.6
2023-01-28T14:46:07.762Z,1.6
2023-01-28T14:48:10.424Z,1.4
2023-01-28T14:50:09.162Z,1.5
2023-01-28T14:52:11.153Z,1.5
2023-01-28T14:54:06.332Z,1.5
2023-01-28T14:55:58.230Z,1.5
2023-01-28T14:57:54.733Z,1.5
2023-01-28T14:59:53.120Z,1.5
2023-01-28T15:01:54.678Z,1.4
2023-01-28T15:03:48.699Z,1.3
2023-01-28T15:05:48.493Z,1.3
2023-01-28T15:07:48.467Z,1.2
2023-01-28T15:09:58.229Z,1.2
2023-01-28T15:11:50.271Z,1.2
2023-01-28T15:13:48.599Z,1.2
2023-01-28T15:15:48.931Z,1.1
2023-01-28T15:17:46.604Z,1.0
2023-01-28T15:19:44.519Z,1.0
2023-01-28T15:21:45.567Z,1.1
2023-01-28T15:23:44.087Z,1.0
2023-01-28T15:25:43.735Z,1.0
2023-01-28T15:27:42.566Z,1.0
2023-01-28T15:29:51.950Z,1.0
2023-01-28T15:31:49.446Z,1.0
2023-01-28T15:33:41.131Z,0.9
2023-01-28T15:35:46.867Z,1.0
2023-01-28T15:37:40.242Z,0.9
2023-01-28T15:39:40.183Z,0.9
2023-01-28T15:41:45.361Z,0.9
2023-01-28T15:43:38.853Z,0.9
2023-01-28T15:45:40.082Z,0.9
2023-01-28T15:47:37.684Z,0.8
2023-01-28T15:51:37.200Z,0.8
2023-01-28T15:53:44.535Z,0.8
2023-01-28T15:55:37.630Z,0.8
2023-01-28T15:57:35.025Z,0.6
2023-01-28T15:59:34.603Z,0.6
2023-01-28T16:01:34.183Z,0.6
2023-01-28T16:03:35.572Z,0.4
2023-01-28T16:05:37.832Z,0.2
2023-01-28T16:07:43.359Z,0.2
2023-01-28T16:09:34.006Z,0.3
2023-01-28T16:11:36.364Z,0.2
2023-01-28T16:13:33.920Z,0.1
2023-01-28T16:15:31.518Z,-0.0
2023-01-28T16:17:38.362Z,-0.1
2023-01-28T16:19:35.397Z,-0.1
2023-01-28T16:21:33.731Z,0.0
2023-01-28T16:23:28.639Z,-0.2
2023-01-28T16:25:30.426Z,-0.2
2023-01-28T16:27:30.257Z,-0.1
2023-01-28T16:29:30.972Z,0.1
2023-01-28T16:31:26.619Z,0.1
2023-01-28T16:33:26.611Z,0.0
2023-01-28T16:35:34.437Z,-0.0
2023-01-28T16:39:24.329Z,-0.2
2023-01-28T16:41:27.924Z,0.0
2023-01-28T16:43:23.628Z,0.1
2023-01-28T16:45:25.302Z,0.1
2023-01-28T16:47:22.783Z,0.2
2023-01-28T16:49:21.810Z,0.0
2023-01-28T16:51:21.957Z,0.0
2023-01-28T16:53:28.720Z,0.0
2023-01-28T16:55:21.773Z,0.0
2023-01-28T16:57:21.688Z,0.1
2023-01-28T16:59:19.565Z,0.1
2023-01-28T17:01:19.576Z,-0.1
2023-01-28T17:07:17.560Z,-0.1
2023-01-28T17:09:16.485Z,-0.1
2023-01-28T17:11:16.110Z,-0.1
2023-01-28T17:13:15.513Z,-0.1
2023-01-28T17:15:15.578Z,-0.2
2023-01-28T17:25:13.595Z,-0.2
2023-01-28T17:27:12.052Z,-0.2
2023-01-28T17:29:11.386Z,-0.4
2023-01-28T17:31:13.294Z,-0.4
2023-01-28T17:33:10.331Z,-0.3
2023-01-28T17:35:11.295Z,-0.4
2023-01-28T17:37:09.674Z,-0.4
2023-01-28T17:39:09.042Z,-0.4
2023-01-28T17:41:11.524Z,-0.6
2023-01-28T17:43:07.888Z,-0.5
2023-01-28T17:45:07.709Z,-0.7
2023-01-28T17:47:06.610Z,-0.6
2023-01-28T17:49:06.518Z,-0.6
2023-01-28T17:51:05.791Z,-0.6
2023-01-28T17:53:05.286Z,-0.9
2023-01-28T17:55:05.020Z,-0.9
2023-01-28T17:57:04.061Z,-0.9
2023-01-28T17:59:05.529Z,-0.9
2023-01-28T18:01:08.827Z,-0.9
2023-01-28T18:03:02.503Z,-1.3
2023-01-28T18:05:02.036Z,-1.3
2023-01-28T18:07:01.385Z,-1.2
2023-01-28T18:09:01.565Z,-1.4
2023-01-28T18:13:00.384Z,-1.3
2023-01-28T18:14:59.005Z,-1.5
2023-01-28T18:18:57.969Z,-1.5
2023-01-28T18:20:57.488Z,-1.3
2023-01-28T18:22:56.816Z,-1.3
2023-01-28T18:24:56.552Z,-1.4
2023-01-28T18:26:58.813Z,-1.4
2023-01-28T18:28:55.178Z,-1.5
2023-01-28T18:30:54.684Z,-1.5
2023-01-28T18:32:54.064Z,-1.5
2023-01-28T18:34:53.544Z,-1.5
2023-01-28T18:36:54.340Z,-1.5
2023-01-28T18:38:53.441Z,-1.5
2023-01-28T18:40:54.155Z,-1.5
2023-01-28T18:42:51.261Z,-1.6
2023-01-28T18:44:50.798Z,-1.6
2023-01-28T18:46:51.314Z,-1.6
2023-01-28T18:48:50.233Z,-1.6
2023-01-28T18:50:49.549Z,-1.8
2023-01-28T18:52:48.531Z,-1.8
2023-01-28T18:54:48.136Z,-1.8
2023-01-28T18:56:48.306Z,-1.8
2023-01-28T18:58:46.827Z,-2.1
2023-01-28T19:00:46.642Z,-2.1
2023-01-28T19:02:45.683Z,-2.1
2023-01-28T19:04:45.274Z,-2.0
2023-01-28T19:06:45.527Z,-2.0
2023-01-28T19:08:44.325Z,-1.9
2023-01-28T19:10:43.493Z,-2.0
2023-01-28T19:12:43.349Z,-2.1
2023-01-28T19:14:42.276Z,-2.0
2023-01-28T19:16:42.977Z,-2.1
2023-01-28T19:18:41.200Z,-2.4
2023-01-28T19:20:40.715Z,-2.2
2023-01-28T19:22:42.174Z,-2.2
2023-01-28T19:24:39.736Z,-2.0
2023-01-28T19:26:39.368Z,-2.1
2023-01-28T19:30:37.877Z,-2.1
2023-01-28T19:32:37.238Z,-2.1
2023-01-28T19:34:36.682Z,-2.2
2023-01-28T19:36:36.662Z,-2.2
2023-01-28T19:38:35.675Z,-2.1
2023-01-28T19:40:39.260Z,-2.1
2023-01-28T19:42:35.161Z,-2.2
2023-01-28T19:44:34.777Z,-2.2
2023-01-28T19:46:35.061Z,-2.2
2023-01-28T19:48:33.148Z,-2.2
2023-01-28T19:50:32.082Z,-2.3
2023-01-28T19:52:31.469Z,-2.3
2023-01-28T19:54:33.152Z,-2.3
2023-01-28T19:56:30.365Z,-2.4
2023-01-28T19:58:32.055Z,-2.3
2023-01-28T20:00:29.494Z,-2.5
2023-01-28T20:02:28.598Z,-2.5
2023-01-28T20:04:28.039Z,-2.4
2023-01-28T20:06:29.921Z,-2.6
2023-01-28T20:08:27.168Z,-2.5
2023-01-28T20:10:26.360Z,-2.5
2023-01-28T20:12:26.640Z,-2.7
2023-01-28T20:14:26.934Z,-2.6
2023-01-28T20:16:26.577Z,-2.4
2023-01-28T20:18:24.879Z,-2.4
2023-01-28T20:20:23.412Z,-2.6
2023-01-28T20:22:22.867Z,-2.5
2023-01-28T20:24:22.509Z,-2.5
2023-01-28T20:26:25.049Z,-2.6
2023-01-28T20:28:22.109Z,-2.6
2023-01-28T20:32:22.234Z,-2.7
2023-01-28T20:34:19.629Z,-2.7
2023-01-28T20:36:18.964Z,-2.7
2023-01-28T20:38:18.261Z,-2.8
2023-01-28T20:40:18.187Z,-2.8
2023-01-28T20:42:17.199Z,-2.8
2023-01-28T20:44:16.927Z,-2.9
2023-01-28T20:46:18.239Z,-2.8
2023-01-28T20:48:15.553Z,-2.7
2023-01-28T20:50:15.612Z,-2.7
2023-01-28T20:52:15.000Z,-2.8
2023-01-28T20:54:16.688Z,-2.9
2023-01-28T20:56:16.672Z,-3.0
2023-01-28T20:58:12.419Z,-3.0
2023-01-28T21:00:12.673Z,-3.0
2023-01-28T21:02:11.399Z,-3.0
2023-01-28T21:04:12.045Z,-2.9
2023-01-28T21:06:10.125Z,-2.9
2023-01-28T21:08:09.637Z,-3.0
2023-01-28T21:10:10.052Z,-2.9
2023-01-28T21:12:08.448Z,-2.9
2023-01-28T21:14:07.742Z,-2.9
2023-01-28T21:16:07.472Z,-3.0
2023-01-28T21:18:06.616Z,-3.0
2023-01-28T21:20:07.949Z,-3.1
2023-01-28T21:22:06.840Z,-3.1
2023-01-28T21:24:06.126Z,-3.0
2023-01-28T21:26:05.676Z,-3.1
2023-01-28T21:28:03.903Z,-2.9
2023-01-28T21:30:04.001Z,-3.1
2023-01-28T21:32:03.102Z,-3.1
2023-01-28T21:34:02.021Z,-3.0
2023-01-28T21:36:06.720Z,-3.0
2023-01-28T21:38:00.863Z,-2.9
2023-01-28T21:40:00.368Z,-3.0
2023-01-28T21:41:59.537Z,-3.1
2023-01-28T21:43:59.406Z,-3.0
2023-01-28T21:45:58.887Z,-3.2
2023-01-28T21:47:57.985Z,-3.1
2023-01-28T21:49:59.970Z,-3.0
2023-01-28T21:53:56.034Z,-3.2
2023-01-28T21:55:55.651Z,-3.4
2023-01-28T21:58:04.746Z,-3.1
2023-01-28T21:59:54.448Z,-3.0
2023-01-28T22:01:54.435Z,-3.1
2023-01-28T22:03:53.097Z,-3.1
2023-01-28T22:05:53.408Z,-3.1
2023-01-28T22:09:28.281Z,-3.1
2023-01-28T22:09:51.606Z,-3.1
2023-01-28T22:11:51.071Z,-3.1
2023-01-28T22:13:50.198Z,-3.2
2023-01-28T22:15:49.758Z,-3.2
2023-01-28T22:17:49.040Z,-3.4
2023-01-28T22:19:48.477Z,-3.2
2023-01-28T22:21:48.411Z,-3.1
2023-01-28T22:23:47.684Z,-3.1
2023-01-28T22:25:46.632Z,-3.3
2023-01-28T22:27:46.091Z,-3.5
2023-01-28T22:31:45.603Z,-3.5
2023-01-28T22:33:45.011Z,-3.4
2023-01-28T22:35:44.000Z,-3.4
2023-01-28T22:37:43.368Z,-3.5
2023-01-28T22:39:42.672Z,-3.6
2023-01-28T22:41:43.196Z,-3.6
2023-01-28T22:43:41.588Z,-3.7
2023-01-28T22:45:41.114Z,-3.6
2023-01-28T22:47:42.251Z,-3.5
2023-01-28T22:49:39.431Z,-3.6
2023-01-28T22:51:39.076Z,-3.7
2023-01-28T22:53:38.529Z,-3.6
2023-01-28T22:55:37.750Z,-3.6
2023-01-28T22:57:37.085Z,-3.7
2023-01-28T22:59:39.091Z,-3.7
2023-01-28T23:01:35.975Z,-3.8
2023-01-28T23:03:35.862Z,-3.8
2023-01-28T23:05:34.612Z,-3.8
2023-01-28T23:07:34.179Z,-3.7
2023-01-28T23:09:33.420Z,-3.7
2023-01-28T23:11:33.026Z,-3.5
2023-01-28T23:13:42.045Z,-3.5
2023-01-28T23:15:41.931Z,-3.5
2023-01-28T23:17:40.884Z,-3.4
2023-01-28T23:19:40.686Z,-3.3
2023-01-28T23:21:39.671Z,-3.4
2023-01-28T23:23:39.131Z,-3.5
2023-01-28T23:25:28.596Z,-3.6
2023-01-28T23:27:28.140Z,-3.5
2023-01-28T23:29:30.071Z,-3.4
2023-01-28T23:31:27.399Z,-3.5
2023-01-28T23:33:26.478Z,-3.6
2023-01-28T23:35:26.022Z,-3.4
2023-01-28T23:37:24.924Z,-3.4
2023-01-28T23:39:24.444Z,-3.4
2023-01-28T23:41:23.703Z,-3.3
2023-01-28T23:43:23.210Z,-3.4
2023-01-28T23:45:22.876Z,-3.4
2023-01-28T23:47:22.132Z,-3.4
2023-01-28T23:49:21.308Z,-3.5
2023-01-28T23:51:20.799Z,-3.4
2023-01-28T23:53:20.289Z,-3.5
2023-01-28T23:55:20.044Z,-3.5
2023-01-28T23:57:19.089Z,-3.6
2023-01-28T23:59:18.716Z,-3.6
